Bei Facebook empfehlenBei Twitter postenGoogle plusPinterest

Das Wetter im Erzgebirge am 22.05.2016

Wetter und Klima am 22.05.2016 Holzhau im Erzgebirge (630m ü.NN)
Letzte gemessene Temperatur und Uhrzeit der Messung23:45:00 Uhr16.70 °C
Temperatur (Maximum / Höchstwert) und Uhrzeit der Messung15:30:00 Uhr26.50 °C
Temperatur (Minimum / Tiefstwert) und Uhrzeit der Messung04:45:006.30 °C
Errechneter Absolutwert der Temperaturschwankungen zwischen Tmin und Tmax des Tages20.20 K
Errechnete Tagesmitteltemperatur17.93125 °C
Gesamt - Niederschlag des Tages (in flüssiger Form)0.00 Liter / m²
Luftdruck (Maximum / Höchstwert) und Zeitpunkt der Messung00:00:00 Uhr1014.00 hPa
Luftdruck (Minimum / Tiefstwert) und Zeitpunkt der Messung23:45:00 Uhr1006.00 hPa
Errechneter Absolutwert der Luftdruckschwankungen des Tages8.00 hPa
Höchste gemessene Windgeschwindigkeit und Uhrzeit der Messung23:45:00 Uhr0.00 km/h
Errechnete Windhäufigkeit in Relation zu den Messwerten des Tages0.00000 %
Niedrigste Windkühle (Windchill) und Zeitpunkt der Messung04:45:00 Uhr6.30 °C
Taupunkt (Maximum / Höchstwert) und Uhrzeit der Messung06:30:00 Uhr13.30 °C
Taupunkt (Minimum / Tiefstwert) und Uhrzeit der Messung04:45:004.30 °C
Anzahl der automatisch eingelesenen Messwerte 96

Detaillierte Wetter- und Klima- Messwerte für den 22.05.2016 in Holzhau im Erzgebirge (630m ü.NN)
ZeitTemperaturLuftdruckRel. LuftfeuchteWindWindrichtungWindchillTaupunktNiederschlag l/m²
23:45:0016.70 °C1006.00 hPa68.00 %10.80 °C 
23:30:0016.80 °C1006.10 hPa67.00 %10.60 °C 
23:15:0016.90 °C1006.20 hPa66.00 %10.50 °C 
23:00:0017.10 °C1006.40 hPa66.00 %10.70 °C 
22:45:0017.30 °C1006.40 hPa65.00 %10.70 °C 
22:30:0017.40 °C1006.60 hPa64.00 %10.50 °C 
22:15:0017.80 °C1006.90 hPa63.00 %10.70 °C 
22:00:0018.00 °C1007.20 hPa63.00 %10.90 °C 
21:45:0017.90 °C1007.00 hPa62.00 %10.50 °C 
21:30:0018.10 °C1006.80 hPa61.00 %10.50 °C 
21:15:0018.60 °C1006.90 hPa60.00 %10.70 °C 
21:00:0018.60 °C1007.10 hPa60.00 %10.70 °C 
20:45:0018.70 °C1007.10 hPa60.00 %10.80 °C 
20:30:0018.80 °C1007.10 hPa59.00 %10.60 °C 
20:15:0018.90 °C1007.00 hPa58.00 %10.50 °C 
20:00:0019.00 °C1007.10 hPa57.00 %10.30 °C 
19:45:0019.80 °C1007.20 hPa55.00 %10.50 °C 
19:30:0020.40 °C1007.10 hPa53.00 %10.50 °C 
19:15:0021.10 °C1007.30 hPa52.00 %10.90 °C 
19:00:0021.80 °C1007.50 hPa50.00 %10.90 °C 
18:45:0022.60 °C1007.60 hPa48.00 %11.00 °C 
18:30:0023.60 °C1007.60 hPa45.00 %11.00 °C 
18:15:0024.20 °C1007.70 hPa44.00 %11.20 °C 
18:00:0024.60 °C1007.80 hPa43.00 %11.20 °C 
17:45:0024.90 °C1008.00 hPa43.00 %11.50 °C 
17:30:0024.90 °C1008.00 hPa43.00 %11.50 °C 
17:15:0025.20 °C1008.30 hPa42.00 %11.40 °C 
17:00:0025.50 °C1008.30 hPa43.00 %12.00 °C 
16:45:0025.60 °C1008.50 hPa43.00 %12.10 °C 
16:30:0025.90 °C1008.40 hPa43.00 %12.40 °C 
16:15:0025.60 °C1008.50 hPa42.00 %11.70 °C 
16:00:0025.90 °C1008.50 hPa41.00 %11.60 °C 
15:45:0025.90 °C1008.60 hPa41.00 %11.60 °C 
15:30:0026.50 °C1008.60 hPa41.00 %12.20 °C 
15:15:0026.10 °C1008.60 hPa42.00 %12.20 °C 
15:00:0026.10 °C1008.70 hPa42.00 %12.20 °C 
14:45:0025.90 °C1008.90 hPa43.00 %12.40 °C 
14:30:0025.80 °C1009.10 hPa43.00 %12.30 °C 
14:15:0025.60 °C1009.30 hPa42.00 %11.70 °C 
14:00:0025.30 °C1009.50 hPa43.00 %11.80 °C 
13:45:0025.00 °C1009.50 hPa43.00 %11.60 °C 
13:30:0024.80 °C1009.40 hPa44.00 %11.70 °C 
13:15:0024.60 °C1009.60 hPa45.00 %11.90 °C 
13:00:0024.50 °C1009.60 hPa45.00 %11.80 °C 
12:45:0023.90 °C1009.70 hPa46.00 %11.60 °C 
12:30:0023.30 °C1009.90 hPa47.00 %11.40 °C 
12:15:0022.80 °C1010.00 hPa45.00 %10.30 °C 
12:00:0022.90 °C1010.30 hPa45.00 %10.30 °C 
11:45:0022.80 °C1010.30 hPa44.00 %9.90 °C 
11:30:0022.40 °C1010.30 hPa48.00 %10.90 °C 
11:15:0022.10 °C1010.50 hPa47.00 %10.30 °C 
11:00:0021.90 °C1010.30 hPa49.00 %10.70 °C 
10:45:0021.60 °C1010.60 hPa48.00 %10.10 °C 
10:30:0021.30 °C1010.50 hPa49.00 %10.20 °C 
10:15:0020.90 °C1010.60 hPa49.00 %9.80 °C 
10:00:0020.60 °C1010.50 hPa50.00 %9.80 °C 
09:45:0020.50 °C1010.50 hPa50.00 %9.70 °C 
09:30:0020.80 °C1010.60 hPa54.00 %11.20 °C 
09:15:0019.90 °C1010.60 hPa53.00 %10.00 °C 
09:00:0019.80 °C1010.70 hPa53.00 %10.00 °C 
08:45:0019.80 °C1010.70 hPa53.00 %10.00 °C 
08:30:0019.90 °C1010.80 hPa55.00 %10.60 °C 
08:15:0019.30 °C1011.00 hPa56.00 %10.30 °C 
08:00:0019.10 °C1011.10 hPa55.00 %9.90 °C 
07:45:0018.90 °C1011.20 hPa56.00 %9.90 °C 
07:30:0018.90 °C1011.10 hPa56.00 %9.90 °C 
07:15:0018.60 °C1011.30 hPa58.00 %10.20 °C 
07:00:0017.90 °C1011.40 hPa61.00 %10.30 °C 
06:45:0017.40 °C1011.40 hPa67.00 %11.20 °C 
06:30:0017.40 °C1011.60 hPa77.00 %13.30 °C 
06:15:0015.30 °C1011.90 hPa85.00 %12.80 °C 
06:00:0011.60 °C1011.80 hPa88.00 %9.70 °C 
05:45:009.80 °C1012.10 hPa90.00 %8.20 °C 
05:30:007.50 °C1012.30 hPa89.00 %5.80 °C 
05:15:006.90 °C1012.30 hPa88.00 %5.10 °C 
05:00:006.40 °C1012.40 hPa88.00 %4.60 °C 
04:45:006.30 °C1012.50 hPa87.00 %4.30 °C 
04:30:006.40 °C1012.40 hPa87.00 %4.40 °C 
04:15:006.70 °C1012.40 hPa87.00 %4.70 °C 
04:00:006.90 °C1012.40 hPa87.00 %4.90 °C 
03:45:006.90 °C1012.50 hPa86.00 %4.70 °C 
03:30:007.20 °C1012.60 hPa86.00 %5.00 °C 
03:15:007.60 °C1012.60 hPa85.00 %5.20 °C 
03:00:007.60 °C1012.50 hPa86.00 %5.40 °C 
02:45:007.60 °C1012.50 hPa85.00 %5.20 °C 
02:30:007.80 °C1012.70 hPa84.00 %5.30 °C 
02:15:008.10 °C1012.70 hPa84.00 %5.60 °C 
02:00:008.40 °C1012.80 hPa84.00 %5.90 °C 
01:45:008.40 °C1012.90 hPa84.00 %5.90 °C 
01:30:008.20 °C1013.00 hPa84.00 %5.70 °C 
01:15:007.90 °C1013.20 hPa83.00 %5.20 °C 
01:00:008.30 °C1013.40 hPa83.00 %5.60 °C 
00:45:008.50 °C1013.30 hPa83.00 %5.80 °C 
00:30:008.80 °C1013.50 hPa83.00 %6.10 °C 
00:15:008.70 °C1013.70 hPa83.00 %6.00 °C 
00:00:008.60 °C1014.00 hPa82.00 %5.70 °C 

Permanenter Link zu dieser Seite: Wetter im Erzgebirge am 22.05.2016
Performance-Info: Die Erstellung der Seite / Statistik(en) / Tabelle(n) erforderte 5 Datenbankserver-Abfrage(n) und dauerte 167 Millisekunden. (Dieser Messwert ist von der Gesamt-Auslastung des Servers abhängig.)
Erzgebirge - Wetter | Erzgebirge - Wetter (Mobilgeräte) | Komplette Klimadatenbank